Time;durP1;ratioP1;P1;durP2;ratioP2;P2;SDS_P1;SDS_P2;PMS_P1;PMS_P2;Temp;Humidity;BMP_temperature;BMP_pressure;BME280_temperature;BME280_humidity;BME280_pressure;Samples;Min_cycle;Max_cycle;Signal;HPM_P1;HPM_P2
2024/01/03 00:00:51;;;;;;;5.80;5.30;;;3.50;99.90;;;;;;5038248;28;20218;-77
2024/01/03 00:03:18;;;;;;;5.05;4.65;;;3.60;99.90;;;;;;5041574;28;20214;-78
2024/01/03 00:05:46;;;;;;;5.05;4.60;;;3.60;99.90;;;;;;5040416;28;20764;-75
2024/01/03 00:08:16;;;;;;;4.60;4.30;;;3.70;99.90;;;;;;5040988;28;20226;-76
2024/01/03 00:10:47;;;;;;;4.20;3.90;;;3.70;99.90;;;;;;5041851;28;20230;-78
2024/01/03 00:14:08;;;;;;;4.75;4.45;;;3.80;99.90;;;;;;5039380;28;20588;-77
2024/01/03 00:16:39;;;;;;;4.70;4.40;;;3.80;99.90;;;;;;5040061;28;20272;-76
2024/01/03 00:19:14;;;;;;;4.75;4.35;;;3.70;99.90;;;;;;5039429;28;20214;-77
2024/01/03 00:21:41;;;;;;;4.63;4.32;;;3.70;99.90;;;;;;5038230;28;20245;-75
2024/01/03 00:24:12;;;;;;;4.43;4.15;;;3.70;99.90;;;;;;5040686;28;20211;-75
2024/01/03 00:26:41;;;;;;;4.55;4.25;;;3.70;99.90;;;;;;5041599;28;20916;-76
2024/01/03 00:29:36;;;;;;;4.32;4.10;;;3.70;99.90;;;;;;5041066;28;20706;-76
2024/01/03 00:32:06;;;;;;;4.20;3.90;;;3.70;99.90;;;;;;5039270;28;20226;-75
2024/01/03 00:34:40;;;;;;;4.47;4.18;;;3.80;99.90;;;;;;5040145;28;20203;-76
2024/01/03 00:37:26;;;;;;;4.50;4.20;;;3.80;99.90;;;;;;5041109;28;20260;-76
2024/01/03 00:39:55;;;;;;;3.97;3.78;;;3.80;99.90;;;;;;5039896;28;20223;-76
2024/01/03 00:42:22;;;;;;;4.10;3.80;;;3.80;99.90;;;;;;5041286;28;20230;-77
2024/01/03 00:44:51;;;;;;;4.13;3.83;;;3.80;99.90;;;;;;5041579;28;20290;-75
2024/01/03 00:47:19;;;;;;;4.22;3.92;;;3.80;99.90;;;;;;5041423;28;20233;-76
2024/01/03 00:49:47;;;;;;;4.05;3.80;;;3.70;99.90;;;;;;5041771;28;20250;-77
2024/01/03 00:52:15;;;;;;;3.83;3.63;;;3.80;99.90;;;;;;5043796;28;20219;-75
2024/01/03 00:54:43;;;;;;;3.92;3.72;;;3.80;99.90;;;;;;5042819;28;20203;-75
2024/01/03 00:57:11;;;;;;;3.80;3.60;;;3.80;99.90;;;;;;5048066;28;20341;-75
2024/01/03 00:59:38;;;;;;;3.45;3.25;;;3.80;99.90;;;;;;5044009;28;20710;-75
2024/01/03 01:02:07;;;;;;;4.28;3.97;;;3.80;99.90;;;;;;5038812;28;20211;-76
2024/01/03 01:04:39;;;;;;;4.10;3.80;;;3.80;99.90;;;;;;5041546;28;20198;-76
2024/01/03 01:07:06;;;;;;;4.40;4.10;;;3.80;99.90;;;;;;5045512;28;20522;-75
2024/01/03 01:09:33;;;;;;;4.63;4.32;;;3.80;99.90;;;;;;5044086;28;20222;-75
2024/01/03 01:12:00;;;;;;;4.00;3.72;;;3.70;99.90;;;;;;5042675;28;20226;-76
2024/01/03 01:14:27;;;;;;;4.45;4.03;;;3.70;99.90;;;;;;5042424;28;20257;-75
2024/01/03 01:16:54;;;;;;;4.13;3.83;;;3.60;99.90;;;;;;5044191;28;20225;-76
2024/01/03 01:19:23;;;;;;;4.10;3.80;;;3.60;99.90;;;;;;5044091;28;20226;-75
2024/01/03 01:21:50;;;;;;;4.82;4.43;;;3.60;99.90;;;;;;5043611;28;20230;-76
2024/01/03 01:24:17;;;;;;;4.68;4.38;;;3.60;99.90;;;;;;5041860;28;20199;-75
2024/01/03 01:26:44;;;;;;;4.97;4.57;;;3.50;99.90;;;;;;5044644;28;20222;-77
2024/01/03 01:29:11;;;;;;;4.63;4.22;;;3.40;99.90;;;;;;5043200;28;20207;-77
2024/01/03 01:31:39;;;;;;;4.70;4.40;;;3.40;99.90;;;;;;5042392;28;20226;-76
2024/01/03 01:34:06;;;;;;;4.50;4.20;;;3.50;99.90;;;;;;5043144;28;20202;-76
2024/01/03 01:36:34;;;;;;;4.00;3.70;;;3.50;99.90;;;;;;5044014;28;20643;-75
2024/01/03 01:39:03;;;;;;;4.65;4.35;;;3.60;99.90;;;;;;5044143;28;20210;-75
2024/01/03 01:41:30;;;;;;;6.03;4.43;;;3.60;99.90;;;;;;5043252;28;20223;-75
2024/01/03 01:43:57;;;;;;;4.25;3.95;;;3.60;99.90;;;;;;5044045;28;20203;-75
2024/01/03 01:46:25;;;;;;;4.18;3.92;;;3.60;99.90;;;;;;5047518;28;20258;-75
2024/01/03 01:48:53;;;;;;;4.22;3.92;;;3.60;99.90;;;;;;5041724;28;20202;-75
2024/01/03 01:51:21;;;;;;;4.78;4.38;;;3.60;99.90;;;;;;5042749;28;20596;-76
2024/01/03 01:53:50;;;;;;;4.25;3.85;;;3.60;99.90;;;;;;5042481;28;20233;-75
2024/01/03 01:56:19;;;;;;;5.70;4.72;;;3.50;99.90;;;;;;5042340;28;20231;-76
2024/01/03 01:58:47;;;;;;;4.93;4.55;;;3.50;99.90;;;;;;5044328;28;20290;-76
2024/01/03 02:01:14;;;;;;;4.68;4.28;;;3.40;99.90;;;;;;5042355;28;20231;-77
2024/01/03 02:03:42;;;;;;;5.03;4.63;;;3.40;99.90;;;;;;5043918;28;20210;-75
2024/01/03 02:06:10;;;;;;;4.78;4.38;;;3.40;99.90;;;;;;5041664;28;20250;-75
2024/01/03 02:08:37;;;;;;;4.40;4.10;;;3.40;99.90;;;;;;5044220;28;20199;-76
2024/01/03 02:11:06;;;;;;;4.40;4.15;;;3.50;99.90;;;;;;5042645;28;20309;-75
2024/01/03 02:13:33;;;;;;;3.97;3.78;;;3.60;99.90;;;;;;5042496;28;20198;-75
2024/01/03 02:16:01;;;;;;;4.00;3.70;;;3.60;99.90;;;;;;5041410;28;20203;-77
2024/01/03 02:18:28;;;;;;;4.68;4.38;;;3.60;99.90;;;;;;5041710;28;20209;-75
2024/01/03 02:20:56;;;;;;;4.22;3.92;;;3.60;99.90;;;;;;5041898;28;20230;-75
2024/01/03 02:23:25;;;;;;;4.18;3.88;;;3.60;99.90;;;;;;5042043;28;20214;-76
2024/01/03 02:25:52;;;;;;;4.40;4.10;;;3.60;99.90;;;;;;5042938;28;20269;-76
2024/01/03 02:28:19;;;;;;;4.78;4.43;;;3.60;99.90;;;;;;5042436;28;20230;-75
2024/01/03 02:30:48;;;;;;;4.80;4.38;;;3.50;99.90;;;;;;5039195;28;20230;-77
2024/01/03 02:33:15;;;;;;;4.30;4.00;;;3.50;99.90;;;;;;5042584;28;20584;-77
2024/01/03 02:35:42;;;;;;;4.22;3.92;;;3.50;99.90;;;;;;5043002;28;20298;-75
2024/01/03 02:38:09;;;;;;;4.32;4.03;;;3.60;99.90;;;;;;5043039;28;20268;-76
2024/01/03 02:40:37;;;;;;;4.57;4.18;;;3.60;99.90;;;;;;5040050;28;20234;-76
2024/01/03 02:43:05;;;;;;;3.90;3.70;;;3.60;99.90;;;;;;5042427;28;20790;-76
2024/01/03 02:45:32;;;;;;;3.90;3.70;;;3.60;99.90;;;;;;5041724;28;20203;-75
2024/01/03 02:48:00;;;;;;;3.50;3.30;;;3.70;99.90;;;;;;5040404;28;20241;-76
2024/01/03 02:50:27;;;;;;;3.90;3.63;;;3.70;99.90;;;;;;5043109;28;20222;-75
2024/01/03 02:52:54;;;;;;;3.85;3.65;;;3.70;99.90;;;;;;5042399;28;20215;-75
2024/01/03 02:55:21;;;;;;;4.78;4.38;;;3.70;99.90;;;;;;5042288;28;20199;-75
2024/01/03 02:57:50;;;;;;;4.82;4.43;;;3.70;99.90;;;;;;5042668;28;20242;-74
2024/01/03 03:00:17;;;;;;;5.45;5.00;;;3.70;99.90;;;;;;5042502;28;20222;-75
2024/01/03 03:02:43;;;;;;;4.68;4.38;;;3.60;99.90;;;;;;5041294;28;20223;-75
2024/01/03 03:05:10;;;;;;;4.45;4.15;;;3.60;99.90;;;;;;5041461;28;20202;-75
2024/01/03 03:07:38;;;;;;;4.75;4.45;;;3.50;99.90;;;;;;5042499;28;20846;-76
2024/01/03 03:10:07;;;;;;;4.60;4.20;;;3.50;99.90;;;;;;5042851;28;20226;-77
2024/01/03 03:12:34;;;;;;;4.82;4.43;;;3.50;99.90;;;;;;5041057;28;20276;-75
2024/01/03 03:15:03;;;;;;;5.07;4.68;;;3.60;99.90;;;;;;5042827;28;20225;-76
2024/01/03 03:17:31;;;;;;;4.93;4.53;;;3.50;99.90;;;;;;5041721;28;20242;-75
2024/01/03 03:19:58;;;;;;;4.30;4.00;;;3.40;99.90;;;;;;5042768;28;20215;-75
2024/01/03 03:22:25;;;;;;;5.15;4.85;;;3.40;99.90;;;;;;5039215;28;20234;-77
2024/01/03 03:24:52;;;;;;;4.55;4.25;;;3.30;99.90;;;;;;5039658;28;20217;-77
2024/01/03 03:27:19;;;;;;;4.72;4.32;;;3.30;99.90;;;;;;5040522;28;20221;-75
2024/01/03 03:29:46;;;;;;;4.82;4.43;;;3.30;99.90;;;;;;5039338;28;20598;-76
2024/01/03 03:32:14;;;;;;;5.20;4.80;;;3.30;99.90;;;;;;5039986;28;20221;-75
2024/01/03 03:34:41;;;;;;;4.80;4.45;;;3.30;99.90;;;;;;5040572;28;20209;-75
2024/01/03 03:37:08;;;;;;;5.05;4.65;;;3.20;99.90;;;;;;5041574;28;20211;-75
2024/01/03 03:39:35;;;;;;;5.15;4.78;;;3.20;99.90;;;;;;5040991;28;20309;-75
2024/01/03 03:42:02;;;;;;;5.10;4.70;;;3.20;99.90;;;;;;5042433;28;20253;-75
2024/01/03 03:44:29;;;;;;;4.75;4.43;;;3.20;99.90;;;;;;5041317;28;20215;-75
2024/01/03 03:46:56;;;;;;;5.35;4.95;;;3.30;99.90;;;;;;5042135;28;20259;-76
2024/01/03 03:49:25;;;;;;;4.80;4.50;;;3.30;99.90;;;;;;5042106;28;20222;-76
2024/01/03 03:51:52;;;;;;;5.30;4.90;;;3.30;99.90;;;;;;5042695;28;20211;-76
2024/01/03 03:54:19;;;;;;;5.13;4.70;;;3.30;99.90;;;;;;5041351;28;20199;-76
2024/01/03 03:56:46;;;;;;;4.85;4.55;;;3.30;99.90;;;;;;5040865;28;20299;-75
2024/01/03 03:59:13;;;;;;;5.15;4.75;;;3.30;99.90;;;;;;5040441;28;20713;-75
2024/01/03 04:01:40;;;;;;;4.60;4.30;;;3.30;99.90;;;;;;5042958;28;20222;-76
2024/01/03 04:04:07;;;;;;;4.65;4.35;;;3.40;99.90;;;;;;5040160;28;20288;-75
2024/01/03 04:06:42;;;;;;;4.63;4.30;;;3.40;99.90;;;;;;5040306;28;20222;-77
2024/01/03 04:09:10;;;;;;;5.10;4.70;;;3.50;99.90;;;;;;5041888;28;20234;-76
2024/01/03 04:11:40;;;;;;;4.47;4.18;;;3.50;99.90;;;;;;5041652;28;20214;-76
2024/01/03 04:14:08;;;;;;;4.50;4.20;;;3.60;99.90;;;;;;5037831;28;20215;-78
2024/01/03 04:16:35;;;;;;;4.22;3.95;;;3.60;99.90;;;;;;5039888;28;20239;-75
2024/01/03 04:19:03;;;;;;;4.75;4.35;;;3.60;99.90;;;;;;5036796;28;20670;-76
2024/01/03 04:21:30;;;;;;;4.97;4.57;;;3.60;99.90;;;;;;5039479;28;20938;-75
2024/01/03 04:23:59;;;;;;;4.60;4.07;;;3.60;99.90;;;;;;5038670;28;20202;-76
2024/01/03 04:26:26;;;;;;;4.07;3.78;;;3.60;99.90;;;;;;5039789;28;20462;-75
2024/01/03 04:28:54;;;;;;;3.80;3.50;;;3.60;99.90;;;;;;5038116;28;20769;-74
2024/01/03 04:31:21;;;;;;;4.38;4.07;;;3.60;99.90;;;;;;5038302;28;20315;-77
2024/01/03 04:33:48;;;;;;;4.05;3.75;;;3.60;99.90;;;;;;5037647;28;20211;-76
2024/01/03 04:36:15;;;;;;;4.28;3.97;;;3.60;99.90;;;;;;5037835;28;20207;-75
2024/01/03 04:38:42;;;;;;;4.05;3.75;;;3.60;99.90;;;;;;5038296;28;20235;-75
2024/01/03 04:41:10;;;;;;;4.22;4.00;;;3.60;99.90;;;;;;5043623;28;20226;-76
2024/01/03 04:43:38;;;;;;;4.15;3.92;;;3.60;99.90;;;;;;5039182;28;20231;-76
2024/01/03 04:46:05;;;;;;;3.88;3.67;;;3.70;99.90;;;;;;5040387;28;20203;-76
2024/01/03 04:48:32;;;;;;;3.90;3.60;;;3.70;99.90;;;;;;5043592;28;20225;-76
2024/01/03 04:50:59;;;;;;;4.40;4.10;;;3.60;99.90;;;;;;5042677;28;20219;-75
2024/01/03 04:53:26;;;;;;;4.53;4.13;;;3.60;99.90;;;;;;5044805;28;20598;-76
2024/01/03 04:55:53;;;;;;;3.90;3.70;;;3.60;99.90;;;;;;5045035;28;20195;-76
2024/01/03 04:58:21;;;;;;;5.40;4.90;;;3.50;99.90;;;;;;5041750;28;20219;-75
2024/01/03 05:00:48;;;;;;;4.70;4.32;;;3.40;99.90;;;;;;5045002;28;20223;-75
2024/01/03 05:03:16;;;;;;;4.90;4.60;;;3.40;99.90;;;;;;5044450;28;20877;-75
2024/01/03 05:05:43;;;;;;;4.10;3.80;;;3.40;99.90;;;;;;5043912;28;20203;-75
2024/01/03 05:08:10;;;;;;;4.60;4.28;;;3.40;99.90;;;;;;5044058;28;20232;-76
2024/01/03 05:10:37;;;;;;;5.00;4.40;;;3.40;99.90;;;;;;5042886;28;20229;-75
2024/01/03 05:13:04;;;;;;;3.97;3.67;;;3.50;99.90;;;;;;5043915;28;20516;-75
2024/01/03 05:15:33;;;;;;;4.30;4.00;;;3.60;99.90;;;;;;5043218;28;20199;-76
2024/01/03 05:18:00;;;;;;;4.25;3.95;;;3.60;99.90;;;;;;5042851;28;20223;-78
2024/01/03 05:20:27;;;;;;;3.85;3.60;;;3.70;99.90;;;;;;5041637;28;20230;-76
2024/01/03 05:22:54;;;;;;;4.03;3.72;;;3.70;99.90;;;;;;5042323;28;20935;-76
2024/01/03 05:25:21;;;;;;;3.83;3.63;;;3.70;99.90;;;;;;5044547;28;20206;-77
2024/01/03 05:27:48;;;;;;;3.63;3.42;;;3.70;99.90;;;;;;5044609;28;20230;-76
2024/01/03 05:30:15;;;;;;;4.35;4.05;;;3.70;99.90;;;;;;5044598;28;20269;-76
2024/01/03 05:32:44;;;;;;;3.97;3.67;;;3.70;99.90;;;;;;5040900;28;20222;-76
2024/01/03 05:35:11;;;;;;;3.88;3.67;;;3.70;99.90;;;;;;5044612;28;20203;-77
2024/01/03 05:37:38;;;;;;;3.90;3.70;;;3.80;99.90;;;;;;5043383;28;20231;-77
2024/01/03 05:40:06;;;;;;;3.72;3.53;;;3.70;99.90;;;;;;5043770;28;20630;-76
2024/01/03 05:42:35;;;;;;;3.60;3.40;;;3.70;99.90;;;;;;5043110;28;20636;-75
2024/01/03 05:45:02;;;;;;;4.28;3.97;;;3.70;99.90;;;;;;5044160;28;20208;-76
2024/01/03 05:47:29;;;;;;;3.70;3.40;;;3.80;99.90;;;;;;5041198;28;20227;-76
2024/01/03 05:49:58;;;;;;;4.40;4.10;;;3.80;99.90;;;;;;5043364;28;20233;-76
2024/01/03 05:52:25;;;;;;;4.25;3.92;;;3.80;99.90;;;;;;5043802;28;20214;-77
2024/01/03 05:54:52;;;;;;;4.47;4.18;;;3.80;99.90;;;;;;5043284;28;20203;-76
2024/01/03 05:57:19;;;;;;;4.35;4.05;;;3.80;99.90;;;;;;5043658;28;20223;-75
2024/01/03 05:59:46;;;;;;;4.43;4.13;;;3.70;99.90;;;;;;5045325;28;20225;-76
2024/01/03 06:02:13;;;;;;;3.67;3.38;;;3.70;99.90;;;;;;5040166;28;20219;-75
2024/01/03 06:04:40;;;;;;;4.45;4.15;;;3.70;99.90;;;;;;5043012;28;20206;-76
2024/01/03 06:07:08;;;;;;;4.80;4.50;;;3.70;99.90;;;;;;5042348;28;20719;-76
2024/01/03 06:09:36;;;;;;;4.85;4.55;;;3.70;99.90;;;;;;5042422;28;20591;-76
2024/01/03 06:12:04;;;;;;;4.40;4.10;;;3.70;99.90;;;;;;5043468;28;20218;-75
2024/01/03 06:14:31;;;;;;;4.32;3.83;;;3.80;99.90;;;;;;5041190;28;20210;-75
2024/01/03 06:16:58;;;;;;;4.38;4.07;;;3.80;99.90;;;;;;5041398;28;20908;-76
2024/01/03 06:19:25;;;;;;;3.97;3.67;;;3.80;99.90;;;;;;5041588;28;20218;-75
2024/01/03 06:21:52;;;;;;;4.28;3.97;;;3.80;99.90;;;;;;5042425;28;20215;-76
2024/01/03 06:24:20;;;;;;;4.10;3.80;;;3.80;99.90;;;;;;5042055;28;20203;-78
2024/01/03 06:26:48;;;;;;;4.05;3.75;;;3.80;99.90;;;;;;5040392;28;20226;-78
2024/01/03 06:29:16;;;;;;;4.20;3.80;;;3.80;99.90;;;;;;5041042;28;20215;-77
2024/01/03 06:31:43;;;;;;;3.47;3.28;;;3.80;99.90;;;;;;5040790;28;20802;-77
2024/01/03 06:34:10;;;;;;;3.50;3.30;;;3.80;99.90;;;;;;5041968;28;20206;-76
2024/01/03 06:36:37;;;;;;;3.40;3.20;;;3.90;99.90;;;;;;5041487;28;20239;-77
2024/01/03 06:39:04;;;;;;;4.05;3.75;;;3.90;99.90;;;;;;5041833;28;20203;-75
2024/01/03 06:41:33;;;;;;;4.32;4.03;;;3.90;99.90;;;;;;5041193;28;20432;-77
2024/01/03 06:44:00;;;;;;;4.57;4.28;;;3.90;99.90;;;;;;5041874;28;20199;-76
2024/01/03 06:46:27;;;;;;;3.95;3.65;;;3.90;99.90;;;;;;5040861;28;20226;-75
2024/01/03 06:48:57;;;;;;;4.38;4.07;;;3.90;99.90;;;;;;5034911;28;20313;-79
2024/01/03 06:51:24;;;;;;;4.50;4.20;;;3.90;99.90;;;;;;5038374;28;20254;-76
2024/01/03 06:53:51;;;;;;;5.13;4.72;;;3.80;99.90;;;;;;5039745;28;20203;-76
2024/01/03 06:56:21;;;;;;;5.28;4.82;;;3.70;99.90;;;;;;5041621;28;20229;-76
2024/01/03 06:58:50;;;;;;;5.43;5.03;;;3.50;99.90;;;;;;5043640;28;20210;-77
2024/01/03 07:01:17;;;;;;;5.60;5.20;;;3.40;99.90;;;;;;5042096;28;20725;-75
2024/01/03 07:03:45;;;;;;;5.38;4.97;;;3.40;99.90;;;;;;5045767;28;20731;-77
2024/01/03 07:06:12;;;;;;;6.00;5.55;;;3.50;99.90;;;;;;5047106;28;20206;-75
2024/01/03 07:08:39;;;;;;;5.72;5.22;;;3.50;99.90;;;;;;5044603;28;20230;-76
2024/01/03 07:11:06;;;;;;;5.75;5.35;;;3.60;99.90;;;;;;5043723;28;20221;-75
2024/01/03 07:13:34;;;;;;;5.43;5.05;;;3.60;99.90;;;;;;5043259;28;20210;-76
2024/01/03 07:16:02;;;;;;;5.63;5.13;;;3.60;99.90;;;;;;5042228;28;20233;-76
2024/01/03 07:18:29;;;;;;;6.10;5.60;;;3.60;99.90;;;;;;5042647;28;20205;-79
2024/01/03 07:20:56;;;;;;;5.53;5.13;;;3.60;99.90;;;;;;5039986;28;20772;-76
2024/01/03 07:23:23;;;;;;;5.75;5.22;;;3.60;99.90;;;;;;5039382;28;20248;-76
2024/01/03 07:25:50;;;;;;;6.72;6.13;;;3.60;99.90;;;;;;5040381;28;20207;-75
2024/01/03 07:28:18;;;;;;;7.28;6.57;;;3.50;99.90;;;;;;5040935;28;20233;-75
2024/01/03 07:30:45;;;;;;;6.15;5.65;;;3.60;99.90;;;;;;5040457;28;20222;-78
2024/01/03 07:33:13;;;;;;;6.75;6.15;;;3.60;99.90;;;;;;5039592;28;20223;-77
2024/01/03 07:35:40;;;;;;;7.18;6.57;;;3.60;99.90;;;;;;5039857;28;20206;-75
2024/01/03 07:38:07;;;;;;;6.35;5.72;;;3.60;99.90;;;;;;5042392;28;20273;-76
2024/01/03 07:40:35;;;;;;;6.65;6.05;;;3.70;99.90;;;;;;5046007;28;20292;-75
2024/01/03 07:43:02;;;;;;;6.18;5.63;;;3.70;99.90;;;;;;5042157;28;20331;-76
2024/01/03 07:45:29;;;;;;;6.50;5.90;;;3.60;99.90;;;;;;5043870;28;20198;-78
2024/01/03 07:47:56;;;;;;;6.05;5.55;;;3.50;99.90;;;;;;5043056;28;20237;-76
2024/01/03 07:50:25;;;;;;;6.03;5.53;;;3.50;99.90;;;;;;5041314;28;20234;-76
2024/01/03 07:52:52;;;;;;;6.38;5.78;;;3.40;99.90;;;;;;5039343;28;20230;-75
2024/01/03 07:55:19;;;;;;;6.55;5.90;;;3.40;99.90;;;;;;5041764;28;20708;-78
2024/01/03 07:57:46;;;;;;;6.22;5.63;;;3.40;99.90;;;;;;5042698;28;20225;-75
2024/01/03 08:00:14;;;;;;;5.43;5.03;;;3.40;99.90;;;;;;5044134;28;20219;-77
2024/01/03 08:02:41;;;;;;;5.60;5.10;;;3.40;99.90;;;;;;5041330;28;20222;-77
2024/01/03 08:05:09;;;;;;;5.68;5.18;;;3.40;99.90;;;;;;5044779;28;20202;-75
2024/01/03 08:07:38;;;;;;;5.07;4.68;;;3.50;99.90;;;;;;5039511;28;20233;-75
2024/01/03 08:10:06;;;;;;;5.70;5.13;;;3.50;99.90;;;;;;5042837;28;20226;-76
2024/01/03 08:12:34;;;;;;;4.75;4.45;;;3.50;99.90;;;;;;5038265;28;20733;-75
2024/01/03 08:15:01;;;;;;;4.93;4.63;;;3.60;99.90;;;;;;5042083;28;20808;-77
2024/01/03 08:17:28;;;;;;;5.53;4.97;;;3.70;99.90;;;;;;5040701;28;20242;-77
2024/01/03 08:19:55;;;;;;;4.90;4.50;;;3.80;99.90;;;;;;5043913;28;20238;-75
2024/01/03 08:22:22;;;;;;;4.75;4.45;;;3.90;99.90;;;;;;5042753;28;20229;-77
2024/01/03 08:24:50;;;;;;;5.18;4.72;;;4.00;99.90;;;;;;5047684;28;20202;-77
2024/01/03 08:27:18;;;;;;;5.18;4.78;;;4.00;99.90;;;;;;5049815;28;20230;-76
2024/01/03 08:29:47;;;;;;;5.20;4.80;;;4.00;99.90;;;;;;5038329;28;20308;-76
2024/01/03 08:32:15;;;;;;;5.47;5.05;;;4.10;99.90;;;;;;5038414;28;20281;-77
2024/01/03 08:34:42;;;;;;;4.72;4.38;;;4.10;99.90;;;;;;5038013;28;20337;-76
2024/01/03 08:37:09;;;;;;;5.00;4.70;;;4.20;99.90;;;;;;5039172;28;20784;-75
2024/01/03 08:39:36;;;;;;;4.88;4.57;;;4.20;99.90;;;;;;5041959;28;20226;-78
2024/01/03 08:42:05;;;;;;;5.10;4.70;;;4.30;99.90;;;;;;5042854;28;20218;-76
2024/01/03 08:44:32;;;;;;;5.03;4.63;;;4.40;99.90;;;;;;5040881;28;20234;-75
2024/01/03 08:46:59;;;;;;;5.25;4.85;;;4.40;99.90;;;;;;5043923;28;20317;-76
2024/01/03 08:49:26;;;;;;;5.50;5.10;;;4.40;99.90;;;;;;5039589;28;20230;-77
2024/01/03 08:51:55;;;;;;;5.38;4.97;;;4.40;99.90;;;;;;5042278;28;20223;-77
2024/01/03 08:54:24;;;;;;;5.55;5.05;;;4.50;99.90;;;;;;5042987;28;20226;-75
2024/01/03 08:56:51;;;;;;;5.38;4.97;;;4.40;99.90;;;;;;5042335;28;20218;-76
2024/01/03 08:59:20;;;;;;;4.97;4.68;;;4.50;99.90;;;;;;5045108;28;20195;-76
2024/01/03 09:01:50;;;;;;;5.68;5.20;;;4.50;99.90;;;;;;5042814;28;20314;-76
2024/01/03 09:04:17;;;;;;;5.00;4.60;;;4.40;99.90;;;;;;5038696;28;20869;-77
2024/01/03 09:06:45;;;;;;;5.25;4.85;;;4.40;99.90;;;;;;5039210;28;20237;-77
2024/01/03 09:09:12;;;;;;;6.05;5.55;;;4.40;99.90;;;;;;5039863;28;20223;-77
2024/01/03 09:11:39;;;;;;;6.22;5.75;;;4.30;99.90;;;;;;5043805;28;20313;-77
2024/01/03 09:14:06;;;;;;;5.60;5.20;;;4.40;99.90;;;;;;5037974;28;20206;-76
2024/01/03 09:16:35;;;;;;;5.90;5.47;;;4.40;99.90;;;;;;5039346;28;20233;-77
2024/01/03 09:19:02;;;;;;;5.78;5.38;;;4.40;99.90;;;;;;5033922;28;20203;-76
2024/01/03 09:21:30;;;;;;;5.68;4.97;;;4.50;99.90;;;;;;5035574;28;20251;-75
2024/01/03 09:23:58;;;;;;;6.25;5.75;;;4.60;99.90;;;;;;5034987;28;20225;-76
2024/01/03 09:26:25;;;;;;;6.13;5.53;;;4.60;99.90;;;;;;5039791;28;20227;-76
2024/01/03 09:28:53;;;;;;;6.75;6.15;;;4.60;99.90;;;;;;5039797;28;20215;-76
2024/01/03 09:31:20;;;;;;;6.53;6.03;;;4.60;99.90;;;;;;5037958;28;20242;-75
2024/01/03 09:33:48;;;;;;;6.47;5.88;;;4.60;99.90;;;;;;5040510;28;20205;-78
2024/01/03 09:36:19;;;;;;;5.57;5.18;;;4.60;99.90;;;;;;5044563;28;20206;-76
2024/01/03 09:38:47;;;;;;;6.22;5.82;;;4.60;99.90;;;;;;5044270;28;20223;-75
2024/01/03 09:41:15;;;;;;;5.53;5.03;;;4.60;99.90;;;;;;5042058;28;20222;-76
2024/01/03 09:43:42;;;;;;;4.95;4.65;;;4.70;99.90;;;;;;5043130;28;20207;-77
2024/01/03 09:46:11;;;;;;;6.15;5.60;;;4.70;99.90;;;;;;5042961;28;20673;-78
2024/01/03 09:48:41;;;;;;;5.65;5.25;;;4.80;99.90;;;;;;5038496;28;20325;-76
2024/01/03 09:51:09;;;;;;;5.40;5.00;;;4.80;99.90;;;;;;5038006;28;20311;-77
2024/01/03 09:53:37;;;;;;;5.93;5.43;;;4.80;99.90;;;;;;5038432;28;20210;-76
2024/01/03 09:56:05;;;;;;;6.05;5.45;;;4.90;99.90;;;;;;5039271;28;20206;-76
2024/01/03 09:58:33;;;;;;;6.35;5.68;;;4.90;99.90;;;;;;5038320;28;21014;-76
2024/01/03 10:01:00;;;;;;;7.40;6.55;;;4.80;99.90;;;;;;5037335;28;20227;-76
2024/01/03 10:03:27;;;;;;;7.63;6.65;;;4.80;99.90;;;;;;5043052;28;20211;-76
2024/01/03 10:06:13;;;;;;;6.43;5.93;;;4.80;99.90;;;;;;5040457;28;20229;-77
2024/01/03 10:08:40;;;;;;;6.68;6.07;;;4.90;99.90;;;;;;5037985;28;20788;-75
2024/01/03 10:11:20;;;;;;;6.45;5.95;;;5.00;99.90;;;;;;5039646;28;20640;-76
2024/01/03 10:13:49;;;;;;;6.43;5.93;;;5.00;99.90;;;;;;5040045;28;20220;-79
2024/01/03 10:16:23;;;;;;;6.40;5.90;;;5.10;99.90;;;;;;5036373;28;20289;-79
2024/01/03 10:19:09;;;;;;;6.20;5.72;;;5.20;99.90;;;;;;5040951;28;20293;-78
2024/01/03 10:21:38;;;;;;;5.65;5.20;;;5.20;99.90;;;;;;5040663;28;20278;-76
2024/01/03 10:24:07;;;;;;;6.50;6.00;;;5.20;99.90;;;;;;5037364;28;20246;-76
2024/01/03 10:26:35;;;;;;;6.60;6.00;;;5.10;99.90;;;;;;5039901;28;20199;-75
2024/01/03 10:29:12;;;;;;;6.53;5.70;;;5.10;99.90;;;;;;5039109;28;20254;-76
2024/01/03 10:31:40;;;;;;;7.80;5.60;;;5.10;99.90;;;;;;5038532;28;20218;-76
2024/01/03 10:34:12;;;;;;;5.55;5.05;;;5.10;99.90;;;;;;5037713;28;20198;-77
2024/01/03 10:36:40;;;;;;;6.25;5.68;;;5.20;99.90;;;;;;5044069;28;20204;-77
2024/01/03 10:39:13;;;;;;;5.63;5.20;;;5.20;99.90;;;;;;5038607;28;20234;-77
2024/01/03 10:41:42;;;;;;;5.70;5.20;;;5.20;99.90;;;;;;5039311;28;20206;-76
2024/01/03 10:44:10;;;;;;;6.10;5.60;;;5.20;99.90;;;;;;5038827;28;20562;-75
2024/01/03 10:46:38;;;;;;;5.30;4.80;;;5.30;99.90;;;;;;5043135;28;20203;-75
2024/01/03 10:49:06;;;;;;;6.05;5.55;;;5.40;99.90;;;;;;5049205;28;20223;-76
2024/01/03 10:51:37;;;;;;;5.68;5.18;;;5.50;99.90;;;;;;5040875;28;20694;-75
2024/01/03 10:54:08;;;;;;;6.07;5.57;;;5.60;99.90;;;;;;5034712;28;20238;-75
2024/01/03 10:56:36;;;;;;;5.78;5.28;;;5.80;99.90;;;;;;5040357;28;20222;-77
2024/01/03 10:59:04;;;;;;;6.72;6.13;;;6.00;99.90;;;;;;5037134;28;20289;-77
2024/01/03 11:01:38;;;;;;;6.85;6.25;;;6.30;99.90;;;;;;5038553;28;20210;-77
2024/01/03 11:04:11;;;;;;;7.10;6.15;;;6.70;99.90;;;;;;5040587;28;20215;-76
2024/01/03 11:06:46;;;;;;;7.10;6.50;;;7.30;99.90;;;;;;5044173;28;20207;-77
2024/01/03 11:09:14;;;;;;;6.57;5.78;;;8.10;99.90;;;;;;5041214;28;20234;-75
2024/01/03 11:11:41;;;;;;;6.60;6.00;;;8.90;99.90;;;;;;5042661;28;20214;-76
2024/01/03 11:14:24;;;;;;;6.20;5.60;;;9.60;99.90;;;;;;5041561;28;20214;-77
2024/01/03 11:16:51;;;;;;;5.15;4.75;;;10.20;99.90;;;;;;5042958;28;20292;-76
2024/01/03 11:19:28;;;;;;;6.13;5.40;;;10.50;99.90;;;;;;5043592;28;20202;-78
2024/01/03 11:21:56;;;;;;;5.93;5.32;;;10.30;99.90;;;;;;5039644;28;20249;-80
2024/01/03 11:24:53;;;;;;;6.60;5.88;;;10.10;99.90;;;;;;5039100;28;20218;-76
2024/01/03 11:27:28;;;;;;;5.60;5.03;;;9.70;99.90;;;;;;5039110;28;20250;-75
2024/01/03 11:29:54;;;;;;;5.28;4.72;;;9.30;99.90;;;;;;5036738;28;20292;-77
2024/01/03 11:32:36;;;;;;;5.55;5.05;;;9.10;99.90;;;;;;5037278;28;20304;-78
2024/01/03 11:35:04;;;;;;;5.65;4.75;;;8.90;99.90;;;;;;5039740;28;20881;-79
2024/01/03 11:37:41;;;;;;;5.65;5.15;;;8.70;99.90;;;;;;5039016;28;20306;-77
2024/01/03 11:40:20;;;;;;;5.57;5.00;;;9.40;99.90;;;;;;5036823;28;20379;-77
2024/01/03 11:42:48;;;;;;;5.60;5.05;;;9.90;99.90;;;;;;5039228;28;20246;-77
2024/01/03 11:45:17;;;;;;;5.53;5.03;;;10.40;99.90;;;;;;5043083;28;20206;-75
2024/01/03 11:47:45;;;;;;;6.30;5.63;;;10.80;99.90;;;;;;5046599;28;20223;-76
2024/01/03 11:50:14;;;;;;;5.55;5.03;;;11.00;99.90;;;;;;5042717;28;20708;-77
2024/01/03 11:52:44;;;;;;;5.50;5.00;;;11.10;99.90;;;;;;5044193;28;20226;-76
2024/01/03 11:55:16;;;;;;;5.78;5.28;;;11.20;99.90;;;;;;5042328;28;20195;-77
2024/01/03 11:57:44;;;;;;;5.97;4.55;;;11.40;99.90;;;;;;5042149;28;20298;-75
2024/01/03 12:00:13;;;;;;;5.00;4.50;;;11.60;99.90;;;;;;5038575;28;20225;-73
2024/01/03 12:02:51;;;;;;;5.35;4.85;;;11.80;99.90;;;;;;5042082;28;20218;-77
2024/01/03 12:05:20;;;;;;;5.32;4.88;;;11.50;99.90;;;;;;5040936;28;20704;-77
2024/01/03 12:07:48;;;;;;;5.28;4.78;;;11.40;99.90;;;;;;5046008;28;20230;-76
2024/01/03 12:10:17;;;;;;;5.85;4.95;;;11.30;99.90;;;;;;5039613;28;20226;-75
2024/01/03 12:12:46;;;;;;;5.43;4.93;;;11.40;99.90;;;;;;5041764;28;20305;-75
2024/01/03 12:15:23;;;;;;;6.50;5.25;;;11.40;99.90;;;;;;5041199;28;20198;-78
2024/01/03 12:17:51;;;;;;;5.97;5.43;;;11.30;99.90;;;;;;5041112;28;20225;-79
2024/01/03 12:20:19;;;;;;;5.10;4.70;;;11.30;99.90;;;;;;5036761;28;20313;-77
2024/01/03 12:22:46;;;;;;;5.40;4.90;;;11.30;99.90;;;;;;5034870;28;20214;-75
2024/01/03 12:25:19;;;;;;;5.93;5.30;;;11.40;99.90;;;;;;5038487;28;20199;-76
2024/01/03 12:27:46;;;;;;;5.22;4.72;;;11.40;99.90;;;;;;5039447;28;20305;-78
2024/01/03 12:30:16;;;;;;;6.95;5.20;;;11.40;99.90;;;;;;5046722;28;20225;-77
2024/01/03 12:32:43;;;;;;;5.45;4.95;;;11.40;99.90;;;;;;5044924;28;20250;-74
2024/01/03 12:35:12;;;;;;;4.72;4.25;;;11.40;99.90;;;;;;5040864;28;20206;-78
2024/01/03 12:37:46;;;;;;;6.10;4.45;;;11.60;99.90;;;;;;5042439;28;20656;-77
2024/01/03 12:40:16;;;;;;;5.43;4.95;;;11.70;99.90;;;;;;5040659;28;20352;-78
2024/01/03 12:42:45;;;;;;;4.68;4.28;;;11.60;99.90;;;;;;5045040;28;20225;-76
2024/01/03 12:45:13;;;;;;;4.68;4.10;;;11.50;99.90;;;;;;5050909;28;20326;-78
2024/01/03 12:47:41;;;;;;;5.32;4.50;;;11.40;99.90;;;;;;5034575;28;20222;-76
2024/01/03 12:50:09;;;;;;;5.10;4.28;;;11.70;99.90;;;;;;5035146;28;20261;-78
2024/01/03 12:52:36;;;;;;;6.32;4.43;;;11.90;99.90;;;;;;5035783;28;20344;-77
2024/01/03 12:55:04;;;;;;;5.05;4.60;;;11.70;99.90;;;;;;5035812;28;20214;-76
2024/01/03 12:57:31;;;;;;;4.82;4.38;;;11.60;99.90;;;;;;5036141;28;20226;-75
2024/01/03 13:00:01;;;;;;;5.18;4.68;;;11.50;99.90;;;;;;5039660;28;20223;-77
2024/01/03 13:02:28;;;;;;;4.93;4.47;;;11.40;99.90;;;;;;5037933;28;20234;-76